Time;durP1;ratioP1;P1;durP2;ratioP2;P2;SDS_P1;SDS_P2;PMS_P1;PMS_P2;Temp;Humidity;BMP_temperature;BMP_pressure;BME280_temperature;BME280_humidity;BME280_pressure;Samples;Min_cycle;Max_cycle;Signal;HPM_P1;HPM_P2
2022/05/08 00:00:18;;;;;;;16.97;5.17;;;;;;;;;;4979057;28;20237;-75
2022/05/08 00:02:44;;;;;;;19.80;4.93;;;;;;;;;;4995946;28;20304;-73
2022/05/08 00:05:12;;;;;;;21.60;5.00;;;;;;;;;;4995877;28;20217;-74
2022/05/08 00:07:40;;;;;;;16.73;4.77;;;;;;;;;;4999881;28;20264;-74
2022/05/08 00:10:06;;;;;;;17.90;5.17;;;;;;;;;;4996600;28;20235;-75
2022/05/08 00:12:32;;;;;;;19.47;5.37;;;;;;;;;;4931983;28;20605;-74
2022/05/08 00:14:57;;;;;;;19.97;5.30;;;;;;;;;;4998530;28;20308;-75
2022/05/08 00:17:23;;;;;;;17.57;4.83;;;;;;;;;;4999284;28;20732;-75
2022/05/08 00:19:50;;;;;;;22.27;5.23;;;;;;;;;;4976744;28;20853;-75
2022/05/08 00:22:18;;;;;;;20.10;5.27;;;;;;;;;;4977072;28;20241;-73
2022/05/08 00:24:43;;;;;;;19.43;5.00;;;;;;;;;;4968531;28;20236;-75
2022/05/08 00:27:09;;;;;;;17.33;4.93;;;;;;;;;;4993436;28;20799;-74
2022/05/08 00:29:37;;;;;;;15.90;5.17;;;;;;;;;;4993356;28;20657;-75
2022/05/08 00:32:05;;;;;;;17.67;5.73;;;;;;;;;;4989785;28;20304;-74
2022/05/08 00:34:32;;;;;;;14.23;5.20;;;;;;;;;;4998463;28;20225;-75
2022/05/08 00:36:59;;;;;;;18.77;5.23;;;;;;;;;;4983760;28;20221;-73
2022/05/08 00:39:26;;;;;;;14.07;5.17;;;;;;;;;;4997366;28;20236;-74
2022/05/08 00:41:54;;;;;;;19.77;4.87;;;;;;;;;;4986256;28;20773;-74
2022/05/08 00:44:20;;;;;;;16.83;5.03;;;;;;;;;;4967563;28;20247;-74
2022/05/08 00:46:50;;;;;;;20.53;4.70;;;;;;;;;;4996956;28;20233;-74
2022/05/08 00:49:15;;;;;;;16.97;4.77;;;;;;;;;;4980605;28;20221;-74
2022/05/08 00:51:48;;;;;;;16.87;5.00;;;;;;;;;;4977956;28;20231;-74
2022/05/08 00:54:17;;;;;;;18.80;5.83;;;;;;;;;;4960083;28;20252;-74
2022/05/08 00:56:48;;;;;;;18.10;5.10;;;;;;;;;;4985323;28;20229;-74
2022/05/08 00:59:17;;;;;;;19.30;5.57;;;;;;;;;;4976893;28;20249;-75
2022/05/08 01:01:43;;;;;;;21.27;5.53;;;;;;;;;;4979504;28;20232;-76
2022/05/08 01:04:11;;;;;;;16.23;4.97;;;;;;;;;;4976281;28;20316;-75
2022/05/08 01:06:36;;;;;;;13.50;4.83;;;;;;;;;;4963182;28;20237;-75
2022/05/08 01:09:04;;;;;;;21.10;5.57;;;;;;;;;;4977366;28;20276;-75
2022/05/08 01:11:32;;;;;;;18.70;5.30;;;;;;;;;;4992435;28;20245;-75
2022/05/08 01:13:57;;;;;;;16.27;5.37;;;;;;;;;;4992908;28;20236;-75
2022/05/08 01:16:25;;;;;;;19.37;5.57;;;;;;;;;;4967631;28;20229;-77
2022/05/08 01:18:50;;;;;;;16.97;5.50;;;;;;;;;;4960765;28;20225;-75
2022/05/08 01:21:17;;;;;;;15.70;5.10;;;;;;;;;;4992962;28;20298;-75
2022/05/08 01:23:48;;;;;;;19.20;5.73;;;;;;;;;;4991834;28;20365;-75
2022/05/08 01:26:19;;;;;;;18.43;5.50;;;;;;;;;;4946091;28;20256;-74
2022/05/08 01:28:47;;;;;;;19.27;5.53;;;;;;;;;;4975067;28;20234;-75
2022/05/08 01:31:16;;;;;;;24.87;6.17;;;;;;;;;;4993359;28;20229;-75
2022/05/08 01:33:41;;;;;;;17.63;5.83;;;;;;;;;;4956782;28;20230;-74
2022/05/08 01:36:09;;;;;;;19.47;5.70;;;;;;;;;;4978507;28;20218;-74
2022/05/08 01:38:34;;;;;;;20.07;5.43;;;;;;;;;;4976861;28;20312;-74
2022/05/08 01:41:05;;;;;;;19.23;5.47;;;;;;;;;;4992581;28;20241;-74
2022/05/08 01:43:36;;;;;;;20.07;5.07;;;;;;;;;;4991693;28;20241;-74
2022/05/08 01:46:03;;;;;;;21.03;5.50;;;;;;;;;;4992618;28;20234;-75
2022/05/08 01:48:30;;;;;;;18.67;5.07;;;;;;;;;;4983560;28;20226;-74
2022/05/08 01:50:57;;;;;;;18.97;5.50;;;;;;;;;;4950284;28;20720;-74
2022/05/08 01:53:24;;;;;;;20.33;5.30;;;;;;;;;;4974798;28;20719;-73
2022/05/08 01:55:53;;;;;;;15.10;5.53;;;;;;;;;;4975613;28;20229;-74
2022/05/08 01:58:24;;;;;;;18.47;6.03;;;;;;;;;;4990836;28;20221;-75
2022/05/08 02:00:50;;;;;;;19.37;6.10;;;;;;;;;;4992894;28;20221;-74
2022/05/08 02:03:15;;;;;;;17.47;5.50;;;;;;;;;;4957851;28;20711;-75
2022/05/08 02:05:42;;;;;;;19.30;5.97;;;;;;;;;;4975533;28;20230;-74
2022/05/08 02:08:07;;;;;;;18.83;5.97;;;;;;;;;;4979908;28;20225;-74
2022/05/08 02:10:33;;;;;;;23.70;6.40;;;;;;;;;;4976066;28;20224;-74
2022/05/08 02:13:03;;;;;;;21.17;6.20;;;;;;;;;;4959016;28;20237;-75
2022/05/08 02:15:31;;;;;;;22.50;6.63;;;;;;;;;;4956651;28;20272;-74
2022/05/08 02:18:04;;;;;;;18.77;5.67;;;;;;;;;;4981311;28;20225;-74
2022/05/08 02:20:32;;;;;;;17.53;6.00;;;;;;;;;;4993377;28;20698;-75
2022/05/08 02:22:58;;;;;;;19.03;6.60;;;;;;;;;;4974407;28;20310;-74
2022/05/08 02:25:24;;;;;;;19.63;6.10;;;;;;;;;;4990866;28;20228;-74
2022/05/08 02:27:51;;;;;;;17.67;5.57;;;;;;;;;;4975284;28;20241;-74
2022/05/08 02:30:21;;;;;;;19.03;6.17;;;;;;;;;;4975089;28;20386;-75
2022/05/08 02:32:47;;;;;;;16.17;5.73;;;;;;;;;;4992899;28;20229;-73
2022/05/08 02:35:13;;;;;;;23.17;6.60;;;;;;;;;;4974329;28;20308;-75
2022/05/08 02:37:40;;;;;;;20.13;5.90;;;;;;;;;;4989911;28;20244;-74
2022/05/08 02:40:08;;;;;;;18.90;5.90;;;;;;;;;;4974573;28;20705;-73
2022/05/08 02:42:40;;;;;;;19.57;6.33;;;;;;;;;;4974529;28;20232;-75
2022/05/08 02:45:10;;;;;;;19.33;6.03;;;;;;;;;;4972945;28;20249;-75
2022/05/08 02:47:38;;;;;;;17.93;6.03;;;;;;;;;;4956818;28;20273;-75
2022/05/08 02:50:06;;;;;;;20.00;6.17;;;;;;;;;;4981490;28;20233;-74
2022/05/08 02:52:34;;;;;;;16.33;5.63;;;;;;;;;;4974295;28;20786;-74
2022/05/08 02:58:32;;;;;;;18.53;6.07;;;;;;;;;;4975309;28;20236;-75
2022/05/08 03:00:36;;;;;;;19.47;6.33;;;;;;;;;;4977126;28;20600;-74
2022/05/08 03:03:03;;;;;;;16.17;6.70;;;;;;;;;;4992486;28;20307;-74
2022/05/08 03:05:31;;;;;;;16.17;5.23;;;;;;;;;;4961100;28;20225;-74
2022/05/08 03:08:05;;;;;;;18.50;5.77;;;;;;;;;;4969693;28;20229;-74
2022/05/08 03:11:25;;;;;;;20.23;6.60;;;;;;;;;;4955543;28;20771;-74
2022/05/08 03:13:20;;;;;;;16.10;6.30;;;;;;;;;;4988949;28;20327;-74
2022/05/08 03:15:48;;;;;;;19.47;6.80;;;;;;;;;;4991822;28;20702;-75
2022/05/08 03:18:18;;;;;;;19.17;6.00;;;;;;;;;;4973148;28;20625;-74
2022/05/08 03:20:45;;;;;;;18.40;6.10;;;;;;;;;;4991159;28;20225;-74
2022/05/08 03:23:14;;;;;;;16.87;6.10;;;;;;;;;;4989534;28;20283;-74
2022/05/08 03:25:44;;;;;;;17.37;6.40;;;;;;;;;;4944659;28;20225;-74
2022/05/08 03:28:10;;;;;;;20.43;6.20;;;;;;;;;;4971912;28;20698;-74
2022/05/08 03:30:35;;;;;;;19.03;5.80;;;;;;;;;;4973866;28;20218;-75
2022/05/08 03:33:01;;;;;;;17.27;5.97;;;;;;;;;;4955301;28;20233;-74
2022/05/08 03:35:28;;;;;;;18.20;6.10;;;;;;;;;;4979137;28;20222;-74
2022/05/08 03:37:54;;;;;;;15.63;5.87;;;;;;;;;;4991567;28;20225;-75
2022/05/08 03:40:22;;;;;;;19.17;6.10;;;;;;;;;;4988274;28;20240;-73
2022/05/08 03:42:47;;;;;;;15.43;5.90;;;;;;;;;;4995618;28;20233;-75
2022/05/08 03:45:13;;;;;;;18.93;5.83;;;;;;;;;;4974207;28;20300;-74
2022/05/08 03:47:43;;;;;;;16.03;5.73;;;;;;;;;;4974394;28;20232;-74
2022/05/08 03:50:09;;;;;;;17.30;6.10;;;;;;;;;;4973867;28;20923;-74
2022/05/08 03:52:34;;;;;;;15.17;5.27;;;;;;;;;;4957634;28;20240;-74
2022/05/08 03:55:00;;;;;;;13.43;6.07;;;;;;;;;;4973644;28;20225;-74
2022/05/08 03:57:26;;;;;;;16.20;6.13;;;;;;;;;;4982090;28;20324;-74
2022/05/08 03:59:54;;;;;;;16.70;5.87;;;;;;;;;;4967132;28;20312;-74
2022/05/08 04:02:20;;;;;;;16.90;5.63;;;;;;;;;;4994357;28;20229;-74
2022/05/08 04:04:45;;;;;;;15.70;5.20;;;;;;;;;;4977102;28;20231;-75
2022/05/08 04:07:14;;;;;;;16.33;5.50;;;;;;;;;;4978092;28;20707;-74
2022/05/08 04:09:39;;;;;;;14.40;5.50;;;;;;;;;;4961306;28;20221;-73
2022/05/08 04:12:07;;;;;;;13.07;5.37;;;;;;;;;;4969434;28;20692;-74
2022/05/08 04:14:32;;;;;;;12.20;5.43;;;;;;;;;;4975931;28;20736;-74
2022/05/08 04:17:02;;;;;;;12.80;5.10;;;;;;;;;;4993542;28;20225;-75
2022/05/08 04:19:33;;;;;;;13.27;5.60;;;;;;;;;;4959947;28;20588;-74
2022/05/08 04:24:47;;;;;;;18.03;5.57;;;;;;;;;;4977931;28;20241;-74
2022/05/08 04:27:13;;;;;;;15.83;5.37;;;;;;;;;;4945656;28;20233;-73
2022/05/08 04:29:38;;;;;;;13.77;5.17;;;;;;;;;;4965462;28;20295;-73
2022/05/08 04:32:06;;;;;;;10.67;5.33;;;;;;;;;;4960790;28;20304;-74
2022/05/08 04:34:32;;;;;;;15.77;5.50;;;;;;;;;;4975094;28;20266;-74
2022/05/08 04:36:59;;;;;;;12.37;5.40;;;;;;;;;;4979522;28;20222;-74
2022/05/08 04:39:25;;;;;;;13.47;5.70;;;;;;;;;;4976762;28;20294;-73
2022/05/08 04:41:53;;;;;;;17.33;6.10;;;;;;;;;;4976693;28;20225;-75
2022/05/08 04:44:18;;;;;;;18.23;5.97;;;;;;;;;;4982702;28;20802;-75
2022/05/08 04:46:44;;;;;;;16.37;5.70;;;;;;;;;;4985431;28;20321;-76
2022/05/08 04:49:10;;;;;;;12.60;6.00;;;;;;;;;;4993702;28;20260;-74
2022/05/08 04:51:37;;;;;;;12.07;5.90;;;;;;;;;;4993701;28;20312;-75
2022/05/08 04:54:03;;;;;;;14.20;6.17;;;;;;;;;;4976476;28;20316;-75
2022/05/08 04:56:30;;;;;;;15.17;5.63;;;;;;;;;;4982536;28;20699;-74
2022/05/08 04:58:56;;;;;;;15.17;6.47;;;;;;;;;;4963452;28;20213;-75
2022/05/08 05:01:21;;;;;;;16.57;5.97;;;;;;;;;;4959807;28;20225;-75
2022/05/08 05:03:47;;;;;;;14.40;6.30;;;;;;;;;;4985727;28;20225;-74
2022/05/08 05:06:15;;;;;;;16.33;6.80;;;;;;;;;;4951054;28;20576;-73
2022/05/08 05:08:41;;;;;;;19.10;6.37;;;;;;;;;;4984135;28;20233;-74
2022/05/08 05:11:10;;;;;;;20.40;6.50;;;;;;;;;;4981910;28;20348;-73
2022/05/08 05:13:38;;;;;;;17.80;7.07;;;;;;;;;;4998548;28;20236;-74
2022/05/08 05:16:07;;;;;;;17.57;6.60;;;;;;;;;;4948309;28;20225;-73
2022/05/08 05:18:32;;;;;;;19.80;6.43;;;;;;;;;;4997251;28;20297;-73
2022/05/08 05:21:00;;;;;;;19.33;6.57;;;;;;;;;;4979294;28;20313;-73
2022/05/08 05:23:25;;;;;;;16.47;6.50;;;;;;;;;;4977105;28;20225;-73
2022/05/08 05:25:53;;;;;;;13.70;6.30;;;;;;;;;;4967202;28;20316;-75
2022/05/08 05:28:19;;;;;;;17.53;6.00;;;;;;;;;;4968264;28;20726;-75
2022/05/08 05:30:44;;;;;;;15.00;5.70;;;;;;;;;;4979594;28;20229;-74
2022/05/08 05:33:15;;;;;;;16.87;5.97;;;;;;;;;;4955200;28;20636;-74
2022/05/08 05:35:43;;;;;;;13.40;6.07;;;;;;;;;;4969434;28;20217;-73
2022/05/08 05:38:09;;;;;;;14.80;5.63;;;;;;;;;;4962229;28;20373;-75
2022/05/08 05:40:37;;;;;;;14.23;5.47;;;;;;;;;;4964491;28;20217;-75
2022/05/08 05:43:02;;;;;;;13.97;4.93;;;;;;;;;;4955826;28;20708;-74
2022/05/08 05:45:30;;;;;;;13.00;5.47;;;;;;;;;;4995690;28;20287;-74
2022/05/08 05:47:59;;;;;;;14.90;5.70;;;;;;;;;;4992801;28;20233;-74
2022/05/08 05:50:25;;;;;;;14.93;4.93;;;;;;;;;;4989285;28;20229;-73
2022/05/08 05:52:51;;;;;;;14.27;5.13;;;;;;;;;;4975710;28;20226;-74
2022/05/08 05:55:19;;;;;;;13.37;5.13;;;;;;;;;;4961489;28;20646;-75
2022/05/08 05:57:47;;;;;;;17.50;4.97;;;;;;;;;;4991928;28;20232;-75
2022/05/08 06:00:14;;;;;;;12.40;5.30;;;;;;;;;;4991010;28;20221;-74
2022/05/08 06:02:40;;;;;;;15.50;5.73;;;;;;;;;;4961611;28;20229;-75
2022/05/08 06:05:06;;;;;;;13.43;4.67;;;;;;;;;;4980802;28;20738;-75
2022/05/08 06:07:35;;;;;;;12.57;4.90;;;;;;;;;;4964353;28;20652;-75
2022/05/08 06:10:02;;;;;;;11.10;4.57;;;;;;;;;;4959994;28;20222;-75
2022/05/08 06:12:28;;;;;;;10.97;4.43;;;;;;;;;;4973204;28;20229;-74
2022/05/08 06:14:53;;;;;;;13.93;4.67;;;;;;;;;;4958452;28;20232;-75
2022/05/08 06:17:19;;;;;;;12.30;4.00;;;;;;;;;;4991239;28;20225;-75
2022/05/08 06:19:47;;;;;;;15.00;4.03;;;;;;;;;;4973639;28;20221;-74
2022/05/08 06:22:17;;;;;;;12.53;3.97;;;;;;;;;;4941995;28;20224;-75
2022/05/08 06:24:43;;;;;;;10.73;3.57;;;;;;;;;;4960435;28;20272;-76
2022/05/08 06:27:08;;;;;;;14.50;3.83;;;;;;;;;;4992372;28;20718;-74
2022/05/08 06:29:34;;;;;;;9.37;3.30;;;;;;;;;;4993424;28;20232;-78
2022/05/08 06:31:59;;;;;;;9.80;3.40;;;;;;;;;;4973869;28;20233;-74
2022/05/08 06:34:26;;;;;;;14.20;3.70;;;;;;;;;;4975547;28;20225;-75
2022/05/08 06:36:54;;;;;;;10.83;3.30;;;;;;;;;;4992589;28;20239;-75
2022/05/08 06:39:24;;;;;;;15.00;3.90;;;;;;;;;;4961340;28;21482;-75
2022/05/08 06:41:50;;;;;;;15.67;3.57;;;;;;;;;;4976879;28;20233;-74
2022/05/08 06:44:17;;;;;;;12.77;3.50;;;;;;;;;;4977052;28;20760;-75
2022/05/08 06:46:43;;;;;;;9.63;3.07;;;;;;;;;;4967677;28;20277;-77
2022/05/08 06:49:09;;;;;;;9.93;3.63;;;;;;;;;;4942969;28;20312;-74
2022/05/08 06:51:39;;;;;;;13.77;3.73;;;;;;;;;;4992043;28;20309;-74
2022/05/08 06:54:06;;;;;;;12.33;3.27;;;;;;;;;;4974301;28;20233;-76
2022/05/08 06:56:35;;;;;;;10.63;3.60;;;;;;;;;;4990211;28;20221;-74
2022/05/08 07:01:45;;;;;;;11.20;3.23;;;;;;;;;;4970434;28;20359;-73
2022/05/08 07:04:11;;;;;;;10.23;3.10;;;;;;;;;;4974790;28;20741;-75
2022/05/08 07:06:37;;;;;;;8.10;3.07;;;;;;;;;;4973565;28;20233;-74
2022/05/08 07:09:10;;;;;;;13.33;3.43;;;;;;;;;;4970580;28;20217;-75
2022/05/08 07:11:38;;;;;;;8.37;3.30;;;;;;;;;;4958821;28;20244;-75
2022/05/08 07:14:09;;;;;;;10.70;3.20;;;;;;;;;;4972404;28;20315;-74
2022/05/08 07:16:35;;;;;;;9.97;3.30;;;;;;;;;;4988219;28;20301;-75
2022/05/08 07:19:00;;;;;;;10.87;3.27;;;;;;;;;;4972016;28;20244;-75
2022/05/08 07:21:26;;;;;;;11.20;3.17;;;;;;;;;;4971291;28;20450;-75
2022/05/08 07:23:55;;;;;;;10.47;3.27;;;;;;;;;;4991077;28;20233;-74
2022/05/08 07:26:20;;;;;;;7.93;2.47;;;;;;;;;;4989637;28;20229;-74
2022/05/08 07:28:46;;;;;;;6.53;2.50;;;;;;;;;;4992314;28;20224;-75
2022/05/08 07:31:13;;;;;;;8.40;2.20;;;;;;;;;;4962803;28;20635;-74
2022/05/08 07:33:41;;;;;;;7.80;2.47;;;;;;;;;;4951679;28;20736;-77
2022/05/08 07:36:13;;;;;;;7.27;2.40;;;;;;;;;;4971981;28;20225;-73
2022/05/08 07:38:42;;;;;;;7.17;2.30;;;;;;;;;;4963333;28;20257;-74
2022/05/08 07:41:11;;;;;;;7.80;2.40;;;;;;;;;;4974493;28;20225;-75
2022/05/08 07:43:37;;;;;;;6.73;2.30;;;;;;;;;;4953530;28;20280;-73
2022/05/08 07:46:03;;;;;;;7.13;2.40;;;;;;;;;;4974439;28;20226;-75
2022/05/08 07:48:29;;;;;;;10.43;2.53;;;;;;;;;;4991251;28;20228;-74
2022/05/08 07:50:55;;;;;;;6.60;2.23;;;;;;;;;;4975514;28;20223;-75
2022/05/08 07:53:21;;;;;;;7.40;2.47;;;;;;;;;;4973335;28;20260;-74
2022/05/08 07:55:52;;;;;;;9.17;2.20;;;;;;;;;;4958716;28;20225;-73
2022/05/08 07:58:18;;;;;;;10.13;2.20;;;;;;;;;;4969377;28;20221;-74
2022/05/08 08:00:43;;;;;;;8.13;2.27;;;;;;;;;;4994354;28;20248;-74
2022/05/08 08:03:11;;;;;;;8.23;2.40;;;;;;;;;;4944845;28;20582;-73
2022/05/08 08:05:37;;;;;;;7.97;2.30;;;;;;;;;;4963392;28;20300;-73
2022/05/08 08:08:05;;;;;;;8.57;2.40;;;;;;;;;;4980628;28;20230;-75
2022/05/08 08:10:33;;;;;;;7.27;2.73;;;;;;;;;;4961820;28;20244;-73
2022/05/08 08:13:03;;;;;;;7.03;2.40;;;;;;;;;;4972588;28;20312;-73
2022/05/08 08:15:29;;;;;;;9.33;2.60;;;;;;;;;;4951152;28;20222;-74
2022/05/08 08:17:57;;;;;;;10.87;2.70;;;;;;;;;;4992322;28;20226;-74
2022/05/08 08:20:23;;;;;;;10.03;2.67;;;;;;;;;;4991216;28;20217;-74
2022/05/08 08:22:48;;;;;;;7.63;2.63;;;;;;;;;;4992968;28;20225;-74
2022/05/08 08:25:17;;;;;;;7.97;2.37;;;;;;;;;;4956785;28;20680;-74
2022/05/08 08:27:42;;;;;;;7.53;2.10;;;;;;;;;;4974007;28;20244;-73
2022/05/08 08:30:08;;;;;;;8.43;2.73;;;;;;;;;;4966753;28;20222;-73
2022/05/08 08:32:34;;;;;;;8.30;2.30;;;;;;;;;;4977397;28;20218;-74
2022/05/08 08:35:02;;;;;;;8.20;2.30;;;;;;;;;;4963577;28;20668;-74
2022/05/08 08:37:27;;;;;;;7.70;2.10;;;;;;;;;;4977235;28;20809;-73
2022/05/08 08:39:53;;;;;;;9.57;2.87;;;;;;;;;;4989881;28;20228;-74
2022/05/08 08:42:50;;;;;;;7.47;2.13;;;;;;;;;;4992048;28;20233;-74
2022/05/08 08:48:11;;;;;;;10.17;2.40;;;;;;;;;;4976055;28;20331;-74
2022/05/08 08:50:44;;;;;;;8.40;2.80;;;;;;;;;;4977449;28;20225;-74
2022/05/08 08:53:14;;;;;;;8.67;2.20;;;;;;;;;;4976293;28;20641;-74
2022/05/08 08:55:42;;;;;;;10.00;2.60;;;;;;;;;;4990380;28;20249;-73
2022/05/08 08:58:08;;;;;;;7.43;2.40;;;;;;;;;;4971204;28;20233;-74
2022/05/08 09:00:38;;;;;;;7.27;2.30;;;;;;;;;;4992159;28;20227;-74
2022/05/08 09:03:06;;;;;;;8.07;2.37;;;;;;;;;;4991047;28;20233;-74
2022/05/08 09:05:31;;;;;;;7.53;2.50;;;;;;;;;;4989913;28;20221;-74
2022/05/08 09:08:00;;;;;;;7.43;2.27;;;;;;;;;;4994764;28;20299;-74
2022/05/08 09:10:35;;;;;;;7.93;2.03;;;;;;;;;;4969621;28;20338;-74
2022/05/08 09:13:02;;;;;;;5.60;2.10;;;;;;;;;;4949270;28;20622;-75
2022/05/08 09:15:35;;;;;;;7.17;2.37;;;;;;;;;;4976393;28;20281;-73
2022/05/08 09:18:06;;;;;;;9.07;2.60;;;;;;;;;;4991021;28;20239;-75
2022/05/08 09:20:35;;;;;;;10.13;2.40;;;;;;;;;;4992579;28;20221;-74
2022/05/08 09:23:08;;;;;;;9.17;2.20;;;;;;;;;;4992906;28;20248;-75
2022/05/08 09:26:00;;;;;;;5.73;2.20;;;;;;;;;;4976542;28;20290;-75
2022/05/08 09:28:54;;;;;;;7.07;2.43;;;;;;;;;;4974150;28;20260;-73
2022/05/08 09:31:22;;;;;;;8.97;2.70;;;;;;;;;;4975223;28;20229;-74
2022/05/08 09:33:49;;;;;;;10.02;2.38;;;;;;;;;;4975273;28;20225;-74
2022/05/08 09:36:21;;;;;;;7.50;2.10;;;;;;;;;;4977093;28;20213;-75
2022/05/08 09:38:50;;;;;;;5.73;2.13;;;;;;;;;;4976131;28;20597;-74
2022/05/08 09:41:26;;;;;;;6.17;2.03;;;;;;;;;;4974258;28;20257;-75
2022/05/08 09:43:57;;;;;;;7.47;2.37;;;;;;;;;;4977279;28;20702;-74
2022/05/08 09:46:25;;;;;;;7.50;2.47;;;;;;;;;;4976547;28;20229;-74
2022/05/08 09:48:53;;;;;;;9.03;2.60;;;;;;;;;;4976197;28;20232;-74
2022/05/08 09:51:18;;;;;;;8.80;2.73;;;;;;;;;;4970734;28;20296;-75
2022/05/08 09:53:46;;;;;;;6.67;2.00;;;;;;;;;;4999724;28;20654;-74
2022/05/08 09:56:14;;;;;;;6.53;2.30;;;;;;;;;;4982244;28;20223;-72
2022/05/08 09:58:43;;;;;;;5.87;2.13;;;;;;;;;;4983322;28;20229;-73
2022/05/08 10:01:09;;;;;;;6.43;2.27;;;;;;;;;;4971174;28;20229;-74
2022/05/08 10:03:34;;;;;;;6.70;2.13;;;;;;;;;;4987937;28;20241;-74
2022/05/08 10:06:00;;;;;;;7.88;2.50;;;;;;;;;;4999142;28;20225;-74
2022/05/08 10:08:36;;;;;;;7.63;2.60;;;;;;;;;;4965664;28;20218;-74
2022/05/08 10:14:04;;;;;;;6.30;2.50;;;;;;;;;;4977412;28;20729;-74
2022/05/08 10:17:04;;;;;;;5.22;2.08;;;;;;;;;;4976295;28;20233;-74
2022/05/08 10:19:31;;;;;;;8.00;2.20;;;;;;;;;;4972954;28;20363;-75
2022/05/08 10:21:57;;;;;;;6.13;2.20;;;;;;;;;;4987814;28;20225;-75
2022/05/08 10:24:48;;;;;;;8.32;2.35;;;;;;;;;;4991607;28;20225;-74
2022/05/08 10:27:16;;;;;;;4.63;1.88;;;;;;;;;;4990815;28;20621;-75
2022/05/08 10:29:48;;;;;;;4.13;1.85;;;;;;;;;;4974363;28;20711;-74
2022/05/08 10:32:31;;;;;;;6.47;2.30;;;;;;;;;;4988982;28;20221;-74
2022/05/08 10:35:15;;;;;;;5.32;2.10;;;;;;;;;;4990098;28;20250;-74
2022/05/08 10:37:46;;;;;;;6.78;2.17;;;;;;;;;;4992659;28;20240;-74
2022/05/08 10:40:23;;;;;;;5.35;1.90;;;;;;;;;;4951595;28;20229;-74
2022/05/08 10:42:59;;;;;;;7.80;2.20;;;;;;;;;;4974258;28;20221;-74
2022/05/08 10:45:30;;;;;;;9.20;2.22;;;;;;;;;;4973148;28;20324;-74
2022/05/08 10:47:56;;;;;;;7.63;2.33;;;;;;;;;;4991509;28;20714;-73
2022/05/08 10:50:25;;;;;;;5.45;2.30;;;;;;;;;;4957760;28;20243;-75
2022/05/08 10:52:52;;;;;;;5.90;2.13;;;;;;;;;;4974785;28;20221;-74
2022/05/08 10:55:20;;;;;;;6.65;1.85;;;;;;;;;;4982128;28;20647;-73
2022/05/08 10:57:49;;;;;;;4.70;1.95;;;;;;;;;;4990331;28;20229;-75
2022/05/08 11:00:22;;;;;;;5.95;1.95;;;;;;;;;;4957783;28;20218;-75
2022/05/08 11:03:00;;;;;;;7.43;2.53;;;;;;;;;;4958549;28;20251;-74
2022/05/08 11:05:32;;;;;;;5.30;1.98;;;;;;;;;;4957828;28;20248;-74
2022/05/08 11:08:02;;;;;;;6.30;2.30;;;;;;;;;;4960652;28;20380;-75
2022/05/08 11:10:28;;;;;;;5.43;2.30;;;;;;;;;;4991467;28;20232;-75
2022/05/08 11:13:04;;;;;;;7.70;2.28;;;;;;;;;;4991837;28;20643;-73
2022/05/08 11:15:36;;;;;;;7.38;2.83;;;;;;;;;;4974235;28;20217;-75
2022/05/08 11:18:04;;;;;;;8.10;2.20;;;;;;;;;;4987452;28;20217;-75
2022/05/08 11:20:33;;;;;;;6.50;2.10;;;;;;;;;;4973149;28;20221;-75
2022/05/08 11:23:01;;;;;;;6.07;2.22;;;;;;;;;;4972707;28;20300;-74
2022/05/08 11:25:26;;;;;;;5.97;2.30;;;;;;;;;;4989634;28;20248;-74
2022/05/08 11:27:55;;;;;;;6.72;2.25;;;;;;;;;;4951911;28;20356;-73
2022/05/08 11:30:36;;;;;;;4.97;2.15;;;;;;;;;;4958177;28;20613;-74
2022/05/08 11:36:04;;;;;;;7.05;2.58;;;;;;;;;;4960399;28;20232;-76
2022/05/08 11:38:31;;;;;;;5.20;2.22;;;;;;;;;;4989875;28;20240;-74
2022/05/08 11:40:58;;;;;;;5.28;1.80;;;;;;;;;;4991796;28;20277;-75
2022/05/08 11:43:43;;;;;;;4.05;2.03;;;;;;;;;;4990912;28;20228;-75
2022/05/08 11:46:15;;;;;;;8.02;2.15;;;;;;;;;;4960266;28;20724;-75
2022/05/08 11:48:44;;;;;;;8.40;1.98;;;;;;;;;;4973054;28;20511;-74
2022/05/08 11:51:13;;;;;;;4.75;1.95;;;;;;;;;;4944998;28;20209;-74
2022/05/08 11:53:45;;;;;;;5.70;2.00;;;;;;;;;;4972887;28;20643;-74
2022/05/08 11:56:30;;;;;;;6.47;1.70;;;;;;;;;;4988400;28;20229;-75
2022/05/08 11:59:03;;;;;;;7.72;1.92;;;;;;;;;;4969796;28;20225;-75
2022/05/08 12:01:32;;;;;;;6.07;2.20;;;;;;;;;;4968615;28;21357;-75
2022/05/08 12:04:26;;;;;;;5.07;2.00;;;;;;;;;;4989052;28;20232;-74
2022/05/08 12:06:59;;;;;;;4.60;1.88;;;;;;;;;;4990268;28;20427;-74
2022/05/08 12:09:31;;;;;;;5.13;1.80;;;;;;;;;;4971754;28;20240;-75
2022/05/08 12:12:25;;;;;;;4.63;1.95;;;;;;;;;;4971103;28;20320;-76
2022/05/08 12:14:54;;;;;;;6.70;2.00;;;;;;;;;;4968067;28;20237;-75
2022/05/08 12:17:20;;;;;;;5.78;2.30;;;;;;;;;;4957881;28;20229;-75
2022/05/08 12:19:59;;;;;;;6.70;2.40;;;;;;;;;;4943317;28;20313;-74
2022/05/08 12:22:30;;;;;;;5.50;2.25;;;;;;;;;;4991747;28;20229;-74
2022/05/08 12:24:58;;;;;;;5.25;2.00;;;;;;;;;;4975753;28;20327;-75
2022/05/08 12:27:23;;;;;;;5.53;2.22;;;;;;;;;;4975865;28;20237;-75
2022/05/08 12:29:54;;;;;;;4.63;1.90;;;;;;;;;;4960197;28;20241;-76
2022/05/08 12:32:23;;;;;;;5.05;2.03;;;;;;;;;;4975272;28;20217;-75
2022/05/08 12:34:53;;;;;;;6.15;2.10;;;;;;;;;;4993235;28;20750;-75
2022/05/08 12:37:24;;;;;;;3.60;2.00;;;;;;;;;;4980373;28;20209;-74
2022/05/08 12:39:49;;;;;;;5.68;2.38;;;;;;;;;;4992609;28;20221;-74
2022/05/08 12:42:16;;;;;;;8.38;2.35;;;;;;;;;;4981133;28;20295;-75
2022/05/08 12:44:43;;;;;;;7.13;2.22;;;;;;;;;;4977057;28;20727;-74
2022/05/08 12:47:10;;;;;;;6.18;2.17;;;;;;;;;;4992295;28;20333;-74
2022/05/08 12:49:37;;;;;;;4.25;1.90;;;;;;;;;;4976347;28;20267;-73
2022/05/08 12:52:03;;;;;;;5.80;2.22;;;;;;;;;;4976594;28;20340;-74
2022/05/08 12:54:32;;;;;;;7.38;2.47;;;;;;;;;;4976308;28;20230;-75
2022/05/08 12:56:59;;;;;;;5.13;1.92;;;;;;;;;;4966619;28;20222;-75
2022/05/08 12:59:42;;;;;;;9.43;2.33;;;;;;;;;;4992520;28;20231;-74
2022/05/08 13:02:13;;;;;;;7.05;2.00;;;;;;;;;;4956996;28;20606;-75
2022/05/08 13:04:39;;;;;;;5.30;1.95;;;;;;;;;;4976266;28;20723;-74
2022/05/08 13:07:05;;;;;;;6.45;2.33;;;;;;;;;;4992526;28;20221;-74
2022/05/08 13:09:30;;;;;;;8.65;2.40;;;;;;;;;;4974464;28;20214;-74
2022/05/08 13:11:59;;;;;;;4.30;1.95;;;;;;;;;;4981759;28;20222;-74
2022/05/08 13:14:24;;;;;;;7.47;2.13;;;;;;;;;;4958538;28;20291;-74
2022/05/08 13:16:51;;;;;;;8.45;2.20;;;;;;;;;;4961217;28;20225;-74
2022/05/08 13:19:17;;;;;;;6.88;2.22;;;;;;;;;;4976935;28;20283;-74
2022/05/08 13:21:44;;;;;;;5.90;2.10;;;;;;;;;;4962514;28;20283;-75
2022/05/08 13:24:12;;;;;;;7.45;2.42;;;;;;;;;;4968954;28;20230;-74
2022/05/08 13:26:37;;;;;;;4.00;2.00;;;;;;;;;;4973443;28;20226;-73
2022/05/08 13:29:07;;;;;;;6.45;2.40;;;;;;;;;;4965275;28;20745;-74
2022/05/08 13:31:38;;;;;;;5.25;2.20;;;;;;;;;;4973597;28;20579;-74
2022/05/08 13:34:06;;;;;;;3.17;1.88;;;;;;;;;;4974141;28;20230;-74
2022/05/08 13:36:33;;;;;;;5.97;1.92;;;;;;;;;;4993363;28;20213;-75
2022/05/08 13:39:04;;;;;;;5.88;1.95;;;;;;;;;;4992907;28;20229;-74
2022/05/08 13:41:30;;;;;;;5.25;2.08;;;;;;;;;;4976611;28;20221;-75
2022/05/08 13:43:58;;;;;;;3.85;2.13;;;;;;;;;;4959813;28;20777;-75
2022/05/08 13:46:26;;;;;;;7.35;2.63;;;;;;;;;;4989923;28;20283;-75
2022/05/08 13:48:56;;;;;;;4.63;2.20;;;;;;;;;;4964959;28;20222;-74
2022/05/08 13:51:21;;;;;;;4.80;1.77;;;;;;;;;;4978450;28;20307;-74
2022/05/08 13:53:47;;;;;;;4.65;2.00;;;;;;;;;;4961691;28;20385;-74
2022/05/08 13:56:17;;;;;;;5.05;1.70;;;;;;;;;;4975169;28;20217;-74
2022/05/08 13:58:44;;;;;;;4.85;2.00;;;;;;;;;;4987251;28;20608;-74
2022/05/08 14:01:14;;;;;;;5.32;1.73;;;;;;;;;;4990990;28;20595;-74
2022/05/08 14:03:42;;;;;;;3.70;1.80;;;;;;;;;;4944084;28;20254;-75
2022/05/08 14:06:10;;;;;;;4.30;1.75;;;;;;;;;;4959819;28;20244;-75
2022/05/08 14:08:37;;;;;;;4.50;1.83;;;;;;;;;;4944475;28;20749;-75
2022/05/08 14:11:05;;;;;;;5.70;1.90;;;;;;;;;;4990712;28;20225;-74
2022/05/08 14:13:31;;;;;;;3.35;1.65;;;;;;;;;;4942140;28;20229;-74
2022/05/08 14:15:56;;;;;;;5.15;2.10;;;;;;;;;;4993685;28;20328;-74
2022/05/08 14:18:24;;;;;;;5.70;2.22;;;;;;;;;;4960759;28;20230;-75
2022/05/08 14:20:52;;;;;;;4.13;1.90;;;;;;;;;;4992097;28;20615;-75
2022/05/08 14:23:17;;;;;;;6.15;2.13;;;;;;;;;;4973536;28;20245;-74
2022/05/08 14:25:45;;;;;;;5.05;2.08;;;;;;;;;;4950553;28;20778;-75
2022/05/08 14:28:13;;;;;;;5.35;2.13;;;;;;;;;;4975278;28;20241;-75
2022/05/08 14:36:01;;;;;;;5.90;1.80;;;;;;;;;;4976476;28;20309;-75
2022/05/08 14:36:09;;;;;;;5.10;2.05;;;;;;;;;;4989659;28;20233;-76
2022/05/08 14:38:41;;;;;;;6.03;1.77;;;;;;;;;;4989383;28;20769;-74
2022/05/08 14:41:07;;;;;;;3.25;2.08;;;;;;;;;;4973499;28;20213;-74
2022/05/08 14:43:33;;;;;;;4.32;2.15;;;;;;;;;;4957117;28;20727;-72
2022/05/08 14:45:58;;;;;;;5.32;1.88;;;;;;;;;;4991460;28;20221;-74
2022/05/08 14:48:26;;;;;;;5.05;1.75;;;;;;;;;;4972819;28;20635;-74
2022/05/08 14:50:52;;;;;;;7.78;1.83;;;;;;;;;;4980930;28;20221;-73
2022/05/08 14:53:19;;;;;;;5.20;2.00;;;;;;;;;;4981952;28;20609;-74
2022/05/08 14:55:50;;;;;;;5.13;2.28;;;;;;;;;;4979022;28;20285;-72
2022/05/08 14:58:18;;;;;;;6.55;2.05;;;;;;;;;;4978686;28;20240;-74
2022/05/08 15:00:43;;;;;;;6.93;2.20;;;;;;;;;;4996609;28;20275;-74
2022/05/08 15:03:09;;;;;;;5.75;2.00;;;;;;;;;;4962930;28;20292;-74